sensor_id;sensor_type;location;lat;lon;timestamp;P1;durP1;ratioP1;P2;durP2;ratioP2
24961;SDS011;12992;50.884;13.668;2023-01-10T00:01:21;5.50;;;2.40;;
24961;SDS011;12992;50.884;13.668;2023-01-10T00:03:46;4.75;;;2.30;;
24961;SDS011;12992;50.884;13.668;2023-01-10T00:06:11;3.25;;;2.10;;
24961;SDS011;12992;50.884;13.668;2023-01-10T00:08:37;5.03;;;2.50;;
24961;SDS011;12992;50.884;13.668;2023-01-10T00:11:02;3.92;;;2.10;;
24961;SDS011;12992;50.884;13.668;2023-01-10T00:13:51;2.95;;;2.17;;
24961;SDS011;12992;50.884;13.668;2023-01-10T00:16:17;3.60;;;2.60;;
24961;SDS011;12992;50.884;13.668;2023-01-10T00:18:42;4.97;;;2.13;;
24961;SDS011;12992;50.884;13.668;2023-01-10T00:21:08;2.83;;;2.28;;
24961;SDS011;12992;50.884;13.668;2023-01-10T00:23:33;4.63;;;2.25;;
24961;SDS011;12992;50.884;13.668;2023-01-10T00:25:59;2.70;;;2.15;;
24961;SDS011;12992;50.884;13.668;2023-01-10T00:28:25;9.23;;;2.97;;
24961;SDS011;12992;50.884;13.668;2023-01-10T00:30:51;4.57;;;2.33;;
24961;SDS011;12992;50.884;13.668;2023-01-10T00:33:36;3.40;;;2.38;;
24961;SDS011;12992;50.884;13.668;2023-01-10T00:36:03;3.08;;;2.38;;
24961;SDS011;12992;50.884;13.668;2023-01-10T00:38:29;6.28;;;2.60;;
24961;SDS011;12992;50.884;13.668;2023-01-10T00:40:57;2.80;;;2.50;;
24961;SDS011;12992;50.884;13.668;2023-01-10T00:43:22;4.13;;;2.53;;
24961;SDS011;12992;50.884;13.668;2023-01-10T00:46:07;3.53;;;2.40;;
24961;SDS011;12992;50.884;13.668;2023-01-10T00:48:33;4.95;;;2.50;;
24961;SDS011;12992;50.884;13.668;2023-01-10T00:50:58;3.90;;;2.60;;
24961;SDS011;12992;50.884;13.668;2023-01-10T00:53:24;3.22;;;2.40;;
24961;SDS011;12992;50.884;13.668;2023-01-10T00:55:49;6.18;;;2.90;;
24961;SDS011;12992;50.884;13.668;2023-01-10T00:58:15;5.05;;;3.00;;
24961;SDS011;12992;50.884;13.668;2023-01-10T01:00:41;8.02;;;3.10;;
24961;SDS011;12992;50.884;13.668;2023-01-10T01:03:10;6.75;;;2.72;;
24961;SDS011;12992;50.884;13.668;2023-01-10T01:05:40;5.28;;;2.85;;
24961;SDS011;12992;50.884;13.668;2023-01-10T01:08:06;4.10;;;3.13;;
24961;SDS011;12992;50.884;13.668;2023-01-10T01:10:31;6.18;;;2.92;;
24961;SDS011;12992;50.884;13.668;2023-01-10T01:12:58;7.05;;;3.05;;
24961;SDS011;12992;50.884;13.668;2023-01-10T01:15:25;4.32;;;3.15;;
24961;SDS011;12992;50.884;13.668;2023-01-10T01:17:51;4.68;;;3.25;;
24961;SDS011;12992;50.884;13.668;2023-01-10T01:20:17;4.95;;;3.08;;
24961;SDS011;12992;50.884;13.668;2023-01-10T01:22:42;5.22;;;3.30;;
24961;SDS011;12992;50.884;13.668;2023-01-10T01:25:08;5.88;;;3.10;;
24961;SDS011;12992;50.884;13.668;2023-01-10T01:27:33;5.97;;;3.30;;
24961;SDS011;12992;50.884;13.668;2023-01-10T01:29:59;8.00;;;3.03;;
24961;SDS011;12992;50.884;13.668;2023-01-10T01:32:28;6.20;;;3.45;;
24961;SDS011;12992;50.884;13.668;2023-01-10T01:34:54;5.45;;;3.53;;
24961;SDS011;12992;50.884;13.668;2023-01-10T01:37:19;6.50;;;3.45;;
24961;SDS011;12992;50.884;13.668;2023-01-10T01:39:45;5.38;;;3.58;;
24961;SDS011;12992;50.884;13.668;2023-01-10T01:42:34;6.93;;;3.92;;
24961;SDS011;12992;50.884;13.668;2023-01-10T01:47:38;7.03;;;3.45;;
24961;SDS011;12992;50.884;13.668;2023-01-10T01:50:19;5.95;;;3.55;;
24961;SDS011;12992;50.884;13.668;2023-01-10T01:52:50;6.00;;;3.60;;
24961;SDS011;12992;50.884;13.668;2023-01-10T01:55:19;7.43;;;3.63;;
24961;SDS011;12992;50.884;13.668;2023-01-10T01:57:45;5.60;;;3.28;;
24961;SDS011;12992;50.884;13.668;2023-01-10T02:00:12;6.47;;;4.00;;
24961;SDS011;12992;50.884;13.668;2023-01-10T02:02:41;7.63;;;3.90;;
24961;SDS011;12992;50.884;13.668;2023-01-10T02:05:13;5.93;;;3.97;;
24961;SDS011;12992;50.884;13.668;2023-01-10T02:07:43;8.13;;;3.60;;
24961;SDS011;12992;50.884;13.668;2023-01-10T02:10:12;7.93;;;4.13;;
24961;SDS011;12992;50.884;13.668;2023-01-10T02:12:41;9.40;;;4.37;;
24961;SDS011;12992;50.884;13.668;2023-01-10T02:15:10;8.02;;;4.03;;
24961;SDS011;12992;50.884;13.668;2023-01-10T02:17:37;7.72;;;3.88;;
24961;SDS011;12992;50.884;13.668;2023-01-10T02:20:04;6.53;;;4.18;;
24961;SDS011;12992;50.884;13.668;2023-01-10T02:28:15;6.93;;;4.13;;
24961;SDS011;12992;50.884;13.668;2023-01-10T02:33:55;7.05;;;4.30;;
24961;SDS011;12992;50.884;13.668;2023-01-10T02:39:29;8.57;;;4.63;;
24961;SDS011;12992;50.884;13.668;2023-01-10T02:42:12;5.85;;;4.25;;
24961;SDS011;12992;50.884;13.668;2023-01-10T02:44:49;8.88;;;4.55;;
24961;SDS011;12992;50.884;13.668;2023-01-10T02:47:22;9.60;;;4.53;;
24961;SDS011;12992;50.884;13.668;2023-01-10T02:49:48;6.15;;;4.13;;
24961;SDS011;12992;50.884;13.668;2023-01-10T02:52:18;7.22;;;4.22;;
24961;SDS011;12992;50.884;13.668;2023-01-10T02:54:47;6.63;;;3.80;;
24961;SDS011;12992;50.884;13.668;2023-01-10T02:57:23;8.63;;;4.95;;
24961;SDS011;12992;50.884;13.668;2023-01-10T03:11:02;10.73;;;5.38;;
24961;SDS011;12992;50.884;13.668;2023-01-10T03:13:33;10.73;;;4.70;;
24961;SDS011;12992;50.884;13.668;2023-01-10T03:16:09;12.48;;;4.90;;
24961;SDS011;12992;50.884;13.668;2023-01-10T03:18:41;9.40;;;4.38;;
24961;SDS011;12992;50.884;13.668;2023-01-10T03:21:11;11.18;;;4.47;;
24961;SDS011;12992;50.884;13.668;2023-01-10T03:23:37;10.32;;;4.57;;
24961;SDS011;12992;50.884;13.668;2023-01-10T03:26:04;8.40;;;5.05;;
24961;SDS011;12992;50.884;13.668;2023-01-10T03:28:34;8.30;;;4.68;;
24961;SDS011;12992;50.884;13.668;2023-01-10T03:31:10;10.45;;;5.10;;
24961;SDS011;12992;50.884;13.668;2023-01-10T03:33:40;10.23;;;5.37;;
24961;SDS011;12992;50.884;13.668;2023-01-10T03:39:03;8.05;;;5.00;;
24961;SDS011;12992;50.884;13.668;2023-01-10T03:44:37;9.80;;;4.97;;
24961;SDS011;12992;50.884;13.668;2023-01-10T03:47:11;8.00;;;4.97;;
24961;SDS011;12992;50.884;13.668;2023-01-10T03:49:39;11.70;;;5.72;;
24961;SDS011;12992;50.884;13.668;2023-01-10T03:52:07;8.82;;;5.85;;
24961;SDS011;12992;50.884;13.668;2023-01-10T03:54:35;13.68;;;6.30;;
24961;SDS011;12992;50.884;13.668;2023-01-10T03:57:00;9.55;;;5.60;;
24961;SDS011;12992;50.884;13.668;2023-01-10T03:59:26;12.60;;;5.47;;
24961;SDS011;12992;50.884;13.668;2023-01-10T04:01:52;9.77;;;5.05;;
24961;SDS011;12992;50.884;13.668;2023-01-10T04:04:18;11.73;;;5.85;;
24961;SDS011;12992;50.884;13.668;2023-01-10T04:06:43;11.63;;;5.05;;
24961;SDS011;12992;50.884;13.668;2023-01-10T04:09:09;10.88;;;5.10;;
24961;SDS011;12992;50.884;13.668;2023-01-10T04:11:35;10.55;;;5.20;;
24961;SDS011;12992;50.884;13.668;2023-01-10T04:14:00;9.20;;;5.32;;
24961;SDS011;12992;50.884;13.668;2023-01-10T04:16:26;9.20;;;5.20;;
24961;SDS011;12992;50.884;13.668;2023-01-10T04:18:51;8.38;;;5.13;;
24961;SDS011;12992;50.884;13.668;2023-01-10T04:21:16;13.20;;;5.80;;
24961;SDS011;12992;50.884;13.668;2023-01-10T04:23:41;10.50;;;5.40;;
24961;SDS011;12992;50.884;13.668;2023-01-10T04:26:07;13.48;;;6.20;;
24961;SDS011;12992;50.884;13.668;2023-01-10T04:28:32;13.20;;;5.70;;
24961;SDS011;12992;50.884;13.668;2023-01-10T04:30:57;12.05;;;6.53;;
24961;SDS011;12992;50.884;13.668;2023-01-10T04:33:23;9.88;;;5.88;;
24961;SDS011;12992;50.884;13.668;2023-01-10T04:35:49;15.15;;;6.55;;
24961;SDS011;12992;50.884;13.668;2023-01-10T04:38:15;10.90;;;5.88;;
24961;SDS011;12992;50.884;13.668;2023-01-10T04:40:41;10.50;;;6.80;;
24961;SDS011;12992;50.884;13.668;2023-01-10T04:43:07;11.00;;;6.30;;
24961;SDS011;12992;50.884;13.668;2023-01-10T04:45:33;11.45;;;6.20;;
24961;SDS011;12992;50.884;13.668;2023-01-10T04:47:58;9.35;;;6.13;;
24961;SDS011;12992;50.884;13.668;2023-01-10T04:50:24;14.77;;;7.40;;
24961;SDS011;12992;50.884;13.668;2023-01-10T04:52:50;10.63;;;6.13;;
24961;SDS011;12992;50.884;13.668;2023-01-10T04:55:16;11.95;;;6.10;;
24961;SDS011;12992;50.884;13.668;2023-01-10T04:57:41;12.05;;;5.93;;
24961;SDS011;12992;50.884;13.668;2023-01-10T05:00:07;10.65;;;5.78;;
24961;SDS011;12992;50.884;13.668;2023-01-10T05:02:33;11.57;;;5.85;;
24961;SDS011;12992;50.884;13.668;2023-01-10T05:04:59;13.07;;;6.03;;
24961;SDS011;12992;50.884;13.668;2023-01-10T05:07:24;12.52;;;6.43;;
24961;SDS011;12992;50.884;13.668;2023-01-10T05:09:49;15.68;;;6.93;;
24961;SDS011;12992;50.884;13.668;2023-01-10T05:12:15;12.02;;;6.10;;
24961;SDS011;12992;50.884;13.668;2023-01-10T05:14:40;12.18;;;6.00;;
24961;SDS011;12992;50.884;13.668;2023-01-10T05:17:05;12.77;;;6.65;;
24961;SDS011;12992;50.884;13.668;2023-01-10T05:19:31;9.48;;;5.65;;
24961;SDS011;12992;50.884;13.668;2023-01-10T05:21:56;9.68;;;5.57;;
24961;SDS011;12992;50.884;13.668;2023-01-10T05:24:21;10.73;;;5.40;;
24961;SDS011;12992;50.884;13.668;2023-01-10T05:26:47;9.50;;;5.47;;
24961;SDS011;12992;50.884;13.668;2023-01-10T05:29:12;13.98;;;6.55;;
24961;SDS011;12992;50.884;13.668;2023-01-10T05:31:38;12.75;;;5.65;;
24961;SDS011;12992;50.884;13.668;2023-01-10T05:34:04;11.80;;;5.28;;
24961;SDS011;12992;50.884;13.668;2023-01-10T05:36:30;9.52;;;5.35;;
24961;SDS011;12992;50.884;13.668;2023-01-10T05:38:55;10.30;;;5.63;;
24961;SDS011;12992;50.884;13.668;2023-01-10T05:41:21;13.63;;;5.97;;
24961;SDS011;12992;50.884;13.668;2023-01-10T05:43:47;11.65;;;5.40;;
24961;SDS011;12992;50.884;13.668;2023-01-10T05:46:13;12.70;;;5.20;;
24961;SDS011;12992;50.884;13.668;2023-01-10T05:48:38;8.57;;;4.85;;
24961;SDS011;12992;50.884;13.668;2023-01-10T05:51:03;10.38;;;5.10;;
24961;SDS011;12992;50.884;13.668;2023-01-10T05:53:29;10.57;;;5.35;;
24961;SDS011;12992;50.884;13.668;2023-01-10T05:55:58;8.65;;;5.05;;
24961;SDS011;12992;50.884;13.668;2023-01-10T05:58:25;8.98;;;5.07;;
24961;SDS011;12992;50.884;13.668;2023-01-10T06:00:51;11.32;;;5.30;;
24961;SDS011;12992;50.884;13.668;2023-01-10T06:03:18;7.55;;;4.80;;
24961;SDS011;12992;50.884;13.668;2023-01-10T06:05:43;8.70;;;5.05;;
24961;SDS011;12992;50.884;13.668;2023-01-10T06:08:08;8.57;;;4.90;;
24961;SDS011;12992;50.884;13.668;2023-01-10T06:10:34;9.35;;;5.07;;
24961;SDS011;12992;50.884;13.668;2023-01-10T06:12:59;13.30;;;5.05;;
24961;SDS011;12992;50.884;13.668;2023-01-10T06:15:25;10.98;;;5.20;;
24961;SDS011;12992;50.884;13.668;2023-01-10T06:17:50;9.43;;;5.25;;
24961;SDS011;12992;50.884;13.668;2023-01-10T06:20:16;10.73;;;5.32;;
24961;SDS011;12992;50.884;13.668;2023-01-10T06:22:41;9.48;;;4.88;;
24961;SDS011;12992;50.884;13.668;2023-01-10T06:25:07;10.90;;;5.10;;
24961;SDS011;12992;50.884;13.668;2023-01-10T06:27:34;10.25;;;5.28;;
24961;SDS011;12992;50.884;13.668;2023-01-10T06:29:59;11.32;;;5.55;;
24961;SDS011;12992;50.884;13.668;2023-01-10T06:32:25;10.02;;;5.25;;
24961;SDS011;12992;50.884;13.668;2023-01-10T06:34:51;10.90;;;4.95;;
24961;SDS011;12992;50.884;13.668;2023-01-10T06:37:17;11.18;;;5.28;;
24961;SDS011;12992;50.884;13.668;2023-01-10T06:39:42;11.95;;;5.80;;
24961;SDS011;12992;50.884;13.668;2023-01-10T06:42:10;9.25;;;5.53;;
24961;SDS011;12992;50.884;13.668;2023-01-10T06:44:35;9.52;;;5.65;;
24961;SDS011;12992;50.884;13.668;2023-01-10T06:47:00;9.93;;;5.28;;
24961;SDS011;12992;50.884;13.668;2023-01-10T06:49:26;10.70;;;6.13;;
24961;SDS011;12992;50.884;13.668;2023-01-10T06:51:51;10.02;;;5.53;;
24961;SDS011;12992;50.884;13.668;2023-01-10T06:54:16;9.32;;;5.47;;
24961;SDS011;12992;50.884;13.668;2023-01-10T06:56:42;7.80;;;4.95;;
24961;SDS011;12992;50.884;13.668;2023-01-10T06:59:07;11.93;;;5.35;;
24961;SDS011;12992;50.884;13.668;2023-01-10T07:01:32;9.18;;;5.35;;
24961;SDS011;12992;50.884;13.668;2023-01-10T07:03:58;8.77;;;5.15;;
24961;SDS011;12992;50.884;13.668;2023-01-10T07:06:23;8.93;;;5.55;;
24961;SDS011;12992;50.884;13.668;2023-01-10T07:08:48;8.85;;;5.30;;
24961;SDS011;12992;50.884;13.668;2023-01-10T07:11:14;9.27;;;5.05;;
24961;SDS011;12992;50.884;13.668;2023-01-10T07:13:40;10.25;;;5.13;;
24961;SDS011;12992;50.884;13.668;2023-01-10T07:16:07;8.85;;;4.90;;
24961;SDS011;12992;50.884;13.668;2023-01-10T07:18:34;9.60;;;4.95;;
24961;SDS011;12992;50.884;13.668;2023-01-10T07:21:00;7.53;;;5.13;;
24961;SDS011;12992;50.884;13.668;2023-01-10T07:23:25;7.57;;;4.93;;
24961;SDS011;12992;50.884;13.668;2023-01-10T07:25:51;7.65;;;4.57;;
24961;SDS011;12992;50.884;13.668;2023-01-10T07:28:16;7.82;;;4.20;;
24961;SDS011;12992;50.884;13.668;2023-01-10T07:30:42;7.45;;;4.80;;
24961;SDS011;12992;50.884;13.668;2023-01-10T07:33:07;10.23;;;5.03;;
24961;SDS011;12992;50.884;13.668;2023-01-10T07:35:32;7.38;;;5.38;;
24961;SDS011;12992;50.884;13.668;2023-01-10T07:37:58;10.25;;;5.38;;
24961;SDS011;12992;50.884;13.668;2023-01-10T07:40:24;10.80;;;5.80;;
24961;SDS011;12992;50.884;13.668;2023-01-10T07:42:57;8.40;;;5.20;;
24961;SDS011;12992;50.884;13.668;2023-01-10T07:45:23;11.38;;;5.80;;
24961;SDS011;12992;50.884;13.668;2023-01-10T07:47:49;12.63;;;6.05;;
24961;SDS011;12992;50.884;13.668;2023-01-10T07:50:14;10.25;;;5.75;;
24961;SDS011;12992;50.884;13.668;2023-01-10T07:52:40;12.55;;;5.78;;
24961;SDS011;12992;50.884;13.668;2023-01-10T07:55:05;11.35;;;6.13;;
24961;SDS011;12992;50.884;13.668;2023-01-10T07:57:31;9.10;;;6.15;;
24961;SDS011;12992;50.884;13.668;2023-01-10T07:59:56;16.23;;;6.53;;
24961;SDS011;12992;50.884;13.668;2023-01-10T08:02:22;9.27;;;5.63;;
24961;SDS011;12992;50.884;13.668;2023-01-10T08:04:47;10.20;;;5.63;;
24961;SDS011;12992;50.884;13.668;2023-01-10T08:07:13;10.25;;;6.18;;
24961;SDS011;12992;50.884;13.668;2023-01-10T08:09:38;15.13;;;6.18;;
24961;SDS011;12992;50.884;13.668;2023-01-10T08:12:03;11.43;;;6.60;;
24961;SDS011;12992;50.884;13.668;2023-01-10T08:14:29;9.27;;;5.75;;
24961;SDS011;12992;50.884;13.668;2023-01-10T08:16:54;9.25;;;5.80;;
24961;SDS011;12992;50.884;13.668;2023-01-10T08:19:19;9.43;;;5.63;;
24961;SDS011;12992;50.884;13.668;2023-01-10T08:21:44;10.32;;;5.47;;
24961;SDS011;12992;50.884;13.668;2023-01-10T08:24:10;10.98;;;5.45;;
24961;SDS011;12992;50.884;13.668;2023-01-10T08:26:35;7.85;;;4.80;;
24961;SDS011;12992;50.884;13.668;2023-01-10T08:29:00;9.60;;;4.18;;
24961;SDS011;12992;50.884;13.668;2023-01-10T08:31:26;7.68;;;4.43;;
24961;SDS011;12992;50.884;13.668;2023-01-10T08:33:51;8.07;;;4.00;;
24961;SDS011;12992;50.884;13.668;2023-01-10T08:36:18;9.57;;;4.55;;
24961;SDS011;12992;50.884;13.668;2023-01-10T08:38:44;6.47;;;4.50;;
24961;SDS011;12992;50.884;13.668;2023-01-10T08:41:10;6.93;;;4.47;;
24961;SDS011;12992;50.884;13.668;2023-01-10T08:43:35;7.82;;;4.90;;
24961;SDS011;12992;50.884;13.668;2023-01-10T08:46:01;8.40;;;4.57;;
24961;SDS011;12992;50.884;13.668;2023-01-10T08:48:26;8.73;;;4.53;;
24961;SDS011;12992;50.884;13.668;2023-01-10T08:50:51;9.50;;;4.45;;
24961;SDS011;12992;50.884;13.668;2023-01-10T08:53:17;8.77;;;4.65;;
24961;SDS011;12992;50.884;13.668;2023-01-10T08:55:42;6.47;;;4.30;;
24961;SDS011;12992;50.884;13.668;2023-01-10T08:58:07;6.55;;;4.40;;
24961;SDS011;12992;50.884;13.668;2023-01-10T09:00:33;8.02;;;4.70;;
24961;SDS011;12992;50.884;13.668;2023-01-10T09:02:59;6.28;;;4.40;;
24961;SDS011;12992;50.884;13.668;2023-01-10T09:05:24;11.13;;;4.10;;
24961;SDS011;12992;50.884;13.668;2023-01-10T09:07:50;6.55;;;3.80;;
24961;SDS011;12992;50.884;13.668;2023-01-10T09:10:15;11.80;;;4.15;;
24961;SDS011;12992;50.884;13.668;2023-01-10T09:12:41;8.98;;;4.15;;
24961;SDS011;12992;50.884;13.668;2023-01-10T09:15:29;7.60;;;3.53;;
24961;SDS011;12992;50.884;13.668;2023-01-10T09:18:00;5.82;;;3.35;;
24961;SDS011;12992;50.884;13.668;2023-01-10T09:20:28;9.00;;;2.88;;
24961;SDS011;12992;50.884;13.668;2023-01-10T09:22:54;6.28;;;2.97;;
24961;SDS011;12992;50.884;13.668;2023-01-10T09:25:20;5.40;;;2.70;;
24961;SDS011;12992;50.884;13.668;2023-01-10T09:27:46;6.95;;;3.13;;
24961;SDS011;12992;50.884;13.668;2023-01-10T09:30:12;3.97;;;3.08;;
24961;SDS011;12992;50.884;13.668;2023-01-10T09:32:38;4.63;;;3.47;;
24961;SDS011;12992;50.884;13.668;2023-01-10T09:35:04;7.55;;;4.15;;
24961;SDS011;12992;50.884;13.668;2023-01-10T09:37:29;4.82;;;3.50;;
24961;SDS011;12992;50.884;13.668;2023-01-10T09:39:57;5.47;;;3.70;;
24961;SDS011;12992;50.884;13.668;2023-01-10T09:42:29;5.45;;;3.40;;
24961;SDS011;12992;50.884;13.668;2023-01-10T09:45:15;7.47;;;4.00;;
24961;SDS011;12992;50.884;13.668;2023-01-10T09:47:52;7.13;;;4.70;;
24961;SDS011;12992;50.884;13.668;2023-01-10T09:53:42;8.50;;;5.40;;
24961;SDS011;12992;50.884;13.668;2023-01-10T09:55:52;9.60;;;4.88;;
24961;SDS011;12992;50.884;13.668;2023-01-10T09:58:20;6.88;;;5.13;;
24961;SDS011;12992;50.884;13.668;2023-01-10T10:01:03;6.60;;;4.60;;
24961;SDS011;12992;50.884;13.668;2023-01-10T10:06:24;8.60;;;4.95;;
24961;SDS011;12992;50.884;13.668;2023-01-10T10:08:50;7.93;;;4.00;;
24961;SDS011;12992;50.884;13.668;2023-01-10T10:11:25;7.32;;;4.00;;
24961;SDS011;12992;50.884;13.668;2023-01-10T10:14:06;6.93;;;3.60;;
24961;SDS011;12992;50.884;13.668;2023-01-10T10:22:52;6.85;;;2.92;;
24961;SDS011;12992;50.884;13.668;2023-01-10T10:30:45;4.57;;;2.38;;
24961;SDS011;12992;50.884;13.668;2023-01-10T10:33:33;7.85;;;2.55;;
24961;SDS011;12992;50.884;13.668;2023-01-10T10:36:13;6.95;;;2.65;;
24961;SDS011;12992;50.884;13.668;2023-01-10T10:38:45;6.90;;;2.72;;
24961;SDS011;12992;50.884;13.668;2023-01-10T10:41:29;5.93;;;2.60;;
24961;SDS011;12992;50.884;13.668;2023-01-10T10:44:00;7.72;;;2.92;;
24961;SDS011;12992;50.884;13.668;2023-01-10T10:46:30;5.90;;;3.20;;
24961;SDS011;12992;50.884;13.668;2023-01-10T10:48:57;8.18;;;3.40;;
24961;SDS011;12992;50.884;13.668;2023-01-10T10:51:26;5.38;;;3.03;;
24961;SDS011;12992;50.884;13.668;2023-01-10T10:53:58;8.60;;;2.80;;
24961;SDS011;12992;50.884;13.668;2023-01-10T10:56:25;5.60;;;3.10;;
24961;SDS011;12992;50.884;13.668;2023-01-10T10:58:52;9.52;;;3.85;;
24961;SDS011;12992;50.884;13.668;2023-01-10T11:01:20;7.25;;;3.33;;
24961;SDS011;12992;50.884;13.668;2023-01-10T11:04:08;7.40;;;3.85;;
24961;SDS011;12992;50.884;13.668;2023-01-10T11:06:34;10.82;;;3.75;;
24961;SDS011;12992;50.884;13.668;2023-01-10T11:09:02;9.35;;;4.25;;
24961;SDS011;12992;50.884;13.668;2023-01-10T11:11:31;11.27;;;5.03;;
24961;SDS011;12992;50.884;13.668;2023-01-10T11:14:01;12.55;;;4.80;;
24961;SDS011;12992;50.884;13.668;2023-01-10T11:16:30;11.27;;;6.15;;
24961;SDS011;12992;50.884;13.668;2023-01-10T11:19:17;7.30;;;4.78;;
24961;SDS011;12992;50.884;13.668;2023-01-10T11:21:46;8.77;;;4.90;;
24961;SDS011;12992;50.884;13.668;2023-01-10T11:24:19;10.20;;;4.40;;
24961;SDS011;12992;50.884;13.668;2023-01-10T11:27:03;7.13;;;4.13;;
24961;SDS011;12992;50.884;13.668;2023-01-10T11:29:41;9.85;;;4.03;;
24961;SDS011;12992;50.884;13.668;2023-01-10T11:32:16;10.55;;;4.03;;
24961;SDS011;12992;50.884;13.668;2023-01-10T11:34:48;12.23;;;4.00;;
24961;SDS011;12992;50.884;13.668;2023-01-10T11:42:42;6.20;;;3.20;;
24961;SDS011;12992;50.884;13.668;2023-01-10T11:45:13;8.80;;;3.60;;
24961;SDS011;12992;50.884;13.668;2023-01-10T11:47:46;10.27;;;4.25;;
24961;SDS011;12992;50.884;13.668;2023-01-10T11:50:19;8.52;;;2.85;;
24961;SDS011;12992;50.884;13.668;2023-01-10T11:52:46;12.90;;;3.13;;
24961;SDS011;12992;50.884;13.668;2023-01-10T11:55:20;6.65;;;2.85;;
24961;SDS011;12992;50.884;13.668;2023-01-10T11:57:55;7.43;;;3.13;;
24961;SDS011;12992;50.884;13.668;2023-01-10T12:00:29;12.75;;;3.10;;
24961;SDS011;12992;50.884;13.668;2023-01-10T12:02:58;6.88;;;2.97;;
24961;SDS011;12992;50.884;13.668;2023-01-10T12:05:23;8.93;;;2.70;;
24961;SDS011;12992;50.884;13.668;2023-01-10T12:07:52;7.85;;;2.90;;
24961;SDS011;12992;50.884;13.668;2023-01-10T12:10:27;9.38;;;2.67;;
24961;SDS011;12992;50.884;13.668;2023-01-10T12:12:57;9.90;;;2.40;;
24961;SDS011;12992;50.884;13.668;2023-01-10T12:15:27;8.43;;;2.53;;
24961;SDS011;12992;50.884;13.668;2023-01-10T12:17:56;7.00;;;2.60;;
24961;SDS011;12992;50.884;13.668;2023-01-10T12:20:27;8.90;;;2.53;;
24961;SDS011;12992;50.884;13.668;2023-01-10T12:22:59;5.47;;;2.50;;
24961;SDS011;12992;50.884;13.668;2023-01-10T12:25:36;10.25;;;2.88;;
24961;SDS011;12992;50.884;13.668;2023-01-10T12:28:05;11.93;;;2.85;;
24961;SDS011;12992;50.884;13.668;2023-01-10T12:30:40;6.30;;;2.60;;
24961;SDS011;12992;50.884;13.668;2023-01-10T12:33:12;7.30;;;2.63;;
24961;SDS011;12992;50.884;13.668;2023-01-10T12:36:09;5.75;;;2.10;;
24961;SDS011;12992;50.884;13.668;2023-01-10T12:44:46;9.63;;;2.65;;
24961;SDS011;12992;50.884;13.668;2023-01-10T12:52:42;7.45;;;1.90;;
24961;SDS011;12992;50.884;13.668;2023-01-10T12:55:12;6.28;;;2.00;;
24961;SDS011;12992;50.884;13.668;2023-01-10T12:57:39;4.55;;;1.75;;
24961;SDS011;12992;50.884;13.668;2023-01-10T13:00:09;8.70;;;2.42;;
24961;SDS011;12992;50.884;13.668;2023-01-10T13:02:42;5.25;;;2.03;;
24961;SDS011;12992;50.884;13.668;2023-01-10T13:05:19;8.68;;;1.98;;
24961;SDS011;12992;50.884;13.668;2023-01-10T13:07:46;7.43;;;2.53;;
24961;SDS011;12992;50.884;13.668;2023-01-10T13:10:15;8.65;;;2.00;;
24961;SDS011;12992;50.884;13.668;2023-01-10T13:12:43;5.78;;;1.95;;
24961;SDS011;12992;50.884;13.668;2023-01-10T13:15:20;7.22;;;1.73;;
24961;SDS011;12992;50.884;13.668;2023-01-10T13:17:52;5.15;;;1.83;;
24961;SDS011;12992;50.884;13.668;2023-01-10T13:20:39;4.97;;;1.63;;
24961;SDS011;12992;50.884;13.668;2023-01-10T13:23:14;6.72;;;2.25;;
24961;SDS011;12992;50.884;13.668;2023-01-10T13:25:57;6.22;;;1.70;;
24961;SDS011;12992;50.884;13.668;2023-01-10T13:28:36;10.63;;;2.22;;
24961;SDS011;12992;50.884;13.668;2023-01-10T13:31:06;7.15;;;1.85;;
24961;SDS011;12992;50.884;13.668;2023-01-10T13:36:11;5.50;;;1.60;;
24961;SDS011;12992;50.884;13.668;2023-01-10T13:38:44;5.05;;;1.85;;
24961;SDS011;12992;50.884;13.668;2023-01-10T13:41:14;5.20;;;1.80;;
24961;SDS011;12992;50.884;13.668;2023-01-10T13:43:59;4.47;;;1.90;;
24961;SDS011;12992;50.884;13.668;2023-01-10T13:51:25;5.63;;;1.73;;
24961;SDS011;12992;50.884;13.668;2023-01-10T13:53:53;7.82;;;1.50;;
24961;SDS011;12992;50.884;13.668;2023-01-10T13:58:58;5.68;;;1.90;;
24961;SDS011;12992;50.884;13.668;2023-01-10T14:01:41;4.18;;;1.73;;
24961;SDS011;12992;50.884;13.668;2023-01-10T14:04:28;4.13;;;1.45;;
24961;SDS011;12992;50.884;13.668;2023-01-10T14:10:03;5.60;;;1.63;;
24961;SDS011;12992;50.884;13.668;2023-01-10T14:12:32;7.00;;;2.10;;
24961;SDS011;12992;50.884;13.668;2023-01-10T14:15:25;6.40;;;1.80;;
24961;SDS011;12992;50.884;13.668;2023-01-10T14:20:27;5.07;;;1.70;;
24961;SDS011;12992;50.884;13.668;2023-01-10T14:22:58;6.82;;;1.58;;
24961;SDS011;12992;50.884;13.668;2023-01-10T14:25:31;5.20;;;1.38;;
24961;SDS011;12992;50.884;13.668;2023-01-10T14:27:58;6.18;;;1.80;;
24961;SDS011;12992;50.884;13.668;2023-01-10T14:30:34;6.30;;;1.60;;
24961;SDS011;12992;50.884;13.668;2023-01-10T14:33:12;5.40;;;1.85;;
24961;SDS011;12992;50.884;13.668;2023-01-10T14:35:44;4.47;;;1.70;;
24961;SDS011;12992;50.884;13.668;2023-01-10T14:38:19;5.32;;;1.70;;
24961;SDS011;12992;50.884;13.668;2023-01-10T14:40:49;6.53;;;1.65;;
24961;SDS011;12992;50.884;13.668;2023-01-10T14:43:21;4.25;;;1.58;;
24961;SDS011;12992;50.884;13.668;2023-01-10T14:56:26;6.20;;;1.67;;
24961;SDS011;12992;50.884;13.668;2023-01-10T14:58:54;3.70;;;1.60;;
24961;SDS011;12992;50.884;13.668;2023-01-10T15:01:21;2.72;;;1.50;;
24961;SDS011;12992;50.884;13.668;2023-01-10T15:06:17;6.18;;;2.30;;
24961;SDS011;12992;50.884;13.668;2023-01-10T15:08:42;6.15;;;1.50;;
24961;SDS011;12992;50.884;13.668;2023-01-10T15:11:08;4.35;;;1.50;;
24961;SDS011;12992;50.884;13.668;2023-01-10T15:13:40;4.97;;;1.30;;
24961;SDS011;12992;50.884;13.668;2023-01-10T15:16:16;4.22;;;1.50;;
24961;SDS011;12992;50.884;13.668;2023-01-10T15:18:45;6.10;;;1.55;;
24961;SDS011;12992;50.884;13.668;2023-01-10T15:21:12;3.60;;;1.35;;
24961;SDS011;12992;50.884;13.668;2023-01-10T15:23:39;4.35;;;1.40;;
24961;SDS011;12992;50.884;13.668;2023-01-10T15:26:07;3.15;;;1.38;;
24961;SDS011;12992;50.884;13.668;2023-01-10T15:28:40;10.35;;;1.85;;
24961;SDS011;12992;50.884;13.668;2023-01-10T15:31:07;6.28;;;2.42;;
24961;SDS011;12992;50.884;13.668;2023-01-10T15:33:35;6.78;;;1.60;;
24961;SDS011;12992;50.884;13.668;2023-01-10T15:36:03;4.95;;;1.50;;
24961;SDS011;12992;50.884;13.668;2023-01-10T15:38:38;3.83;;;1.55;;
24961;SDS011;12992;50.884;13.668;2023-01-10T15:41:08;8.15;;;2.67;;
24961;SDS011;12992;50.884;13.668;2023-01-10T15:43:34;5.28;;;1.73;;
24961;SDS011;12992;50.884;13.668;2023-01-10T15:46:04;3.80;;;1.23;;
24961;SDS011;12992;50.884;13.668;2023-01-10T15:48:38;8.05;;;1.60;;
24961;SDS011;12992;50.884;13.668;2023-01-10T15:51:25;7.28;;;1.50;;
24961;SDS011;12992;50.884;13.668;2023-01-10T15:53:55;4.50;;;1.73;;
24961;SDS011;12992;50.884;13.668;2023-01-10T15:56:40;4.53;;;1.50;;
24961;SDS011;12992;50.884;13.668;2023-01-10T15:59:27;4.43;;;1.27;;
24961;SDS011;12992;50.884;13.668;2023-01-10T16:02:43;4.10;;;1.77;;
24961;SDS011;12992;50.884;13.668;2023-01-10T16:05:06;4.28;;;1.77;;
24961;SDS011;12992;50.884;13.668;2023-01-10T16:07:40;6.03;;;2.08;;
24961;SDS011;12992;50.884;13.668;2023-01-10T16:10:29;4.45;;;1.60;;
24961;SDS011;12992;50.884;13.668;2023-01-10T16:13:07;2.95;;;1.80;;
24961;SDS011;12992;50.884;13.668;2023-01-10T16:15:53;4.40;;;1.63;;
24961;SDS011;12992;50.884;13.668;2023-01-10T16:18:25;6.05;;;1.75;;